Time;durP1;ratioP1;P1;durP2;ratioP2;P2;SDS_P1;SDS_P2;PMS_P1;PMS_P2;Temp;Humidity;BMP_temperature;BMP_pressure;BME280_temperature;BME280_humidity;BME280_pressure;Samples;Min_cycle;Max_cycle;Signal;HPM_P1;HPM_P2
2022/12/17 13:08:19;;;;;;;24.80;16.30;;;;;;;18.60;80.23;100006.97;105525;1312;21974;-61
2022/12/17 13:10:45;;;;;;;25.10;17.10;;;;;;;18.85;78.90;100002.14;105552;1310;21965;-61
2022/12/17 19:37:43;;;;;;;19.80;15.00;;;;;;;8.27;100.00;100670.03;105432;1310;549696;-58
2022/12/17 19:40:09;;;;;;;20.10;15.00;;;;;;;11.27;100.00;100657.41;105380;1311;21974;-58
2022/12/17 19:42:35;;;;;;;19.20;13.60;;;;;;;11.86;99.59;100656.03;105170;1312;22222;-58
2022/12/17 19:45:01;;;;;;;14.20;11.60;;;;;;;12.35;95.05;100653.09;105128;1312;21982;-58
2022/12/17 19:47:29;;;;;;;12.70;9.70;;;;;;;12.53;92.04;100652.81;105125;1312;21987;-59
2022/12/17 19:49:59;;;;;;;14.10;10.00;;;;;;;12.42;90.25;100658.95;104971;1312;251324;-58
2022/12/17 19:52:24;;;;;;;13.80;9.80;;;;;;;12.43;88.61;100670.91;105452;1312;21983;-58
2022/12/17 19:54:50;;;;;;;13.80;9.70;;;;;;;12.63;87.55;100672.73;105514;1312;21982;-58
2022/12/17 19:57:18;;;;;;;12.00;9.40;;;;;;;12.70;85.82;100679.65;105572;1312;21967;-58
2022/12/17 19:59:44;;;;;;;12.10;9.70;;;;;;;12.75;84.90;100682.39;105487;1311;21980;-58
2022/12/17 20:02:10;;;;;;;10.80;7.70;;;;;;;12.60;86.32;100682.61;105494;1310;22252;-58
2022/12/17 20:04:36;;;;;;;13.30;9.30;;;;;;;12.41;84.89;100682.52;105528;1312;21973;-58
2022/12/17 20:07:02;;;;;;;11.50;8.70;;;;;;;11.77;87.20;100694.83;105557;1312;23984;-58
2022/12/17 20:09:29;;;;;;;13.10;8.90;;;;;;;12.08;87.08;100694.97;105521;1312;21978;-58
2022/12/17 20:11:55;;;;;;;11.40;7.60;;;;;;;12.66;84.27;100684.65;105502;1310;22265;-57
2022/12/17 20:14:25;;;;;;;11.60;8.30;;;;;;;12.58;83.74;100676.31;105488;1312;21987;-60
2022/12/17 20:16:55;;;;;;;9.90;7.70;;;;;;;12.56;83.68;100678.28;105877;1312;23659;-58
2022/12/17 20:19:25;;;;;;;10.20;8.10;;;;;;;12.51;83.32;100679.95;105562;1310;21972;-60
2022/12/17 20:21:52;;;;;;;10.60;7.60;;;;;;;12.50;83.49;100686.46;105598;1310;24451;-58
2022/12/17 20:24:18;;;;;;;10.50;7.80;;;;;;;12.53;83.04;100689.42;105518;1312;22011;-59
2022/12/17 20:26:44;;;;;;;10.90;7.70;;;;;;;12.63;81.71;100692.25;105620;1312;23738;-59
2022/12/17 20:29:10;;;;;;;8.90;7.10;;;;;;;12.91;80.59;100694.09;105585;1312;21979;-60
2022/12/17 20:31:38;;;;;;;10.50;7.70;;;;;;;12.87;79.84;100696.79;105531;1312;22318;-59
2022/12/17 20:34:04;;;;;;;10.80;6.90;;;;;;;12.86;80.10;100703.34;105550;1312;21986;-59
2022/12/17 20:36:32;;;;;;;9.00;6.80;;;;;;;12.88;80.32;100708.06;105576;1301;21974;-59
2022/12/17 20:38:58;;;;;;;8.10;5.70;;;;;;;12.67;79.66;100705.59;105555;1309;21992;-60
2022/12/17 20:41:25;;;;;;;7.30;5.40;;;;;;;12.57;79.64;100707.14;105518;1309;21976;-60
2022/12/17 20:43:51;;;;;;;7.30;4.90;;;;;;;12.55;79.25;100709.82;105545;1299;22952;-59
2022/12/17 20:46:17;;;;;;;6.10;4.70;;;;;;;12.47;78.09;100714.16;105519;1309;21976;-59
2022/12/17 20:48:43;;;;;;;6.50;4.70;;;;;;;12.08;78.47;100726.63;105540;1306;21975;-59
2022/12/17 20:51:16;;;;;;;7.90;4.30;;;;;;;12.29;76.32;100742.90;105499;1309;23698;-59
2022/12/17 20:53:43;;;;;;;5.80;4.70;;;;;;;12.21;76.19;100749.19;105520;1309;24006;-58
2022/12/17 20:56:13;;;;;;;6.00;4.10;;;;;;;11.79;76.74;100753.52;105605;1309;23648;-58
2022/12/17 20:58:39;;;;;;;5.40;4.00;;;;;;;11.89;76.53;100755.52;105541;1305;21972;-58
2022/12/17 21:01:07;;;;;;;5.00;3.80;;;;;;;11.76;76.94;100759.35;105565;1309;21976;-58
2022/12/17 21:03:34;;;;;;;4.20;3.10;;;;;;;11.45;79.67;100760.02;105615;1309;21968;-58
2022/12/17 21:06:08;;;;;;;5.30;3.40;;;;;;;11.76;78.10;100760.41;105623;1309;22023;-58
2022/12/17 21:08:34;;;;;;;4.40;3.40;;;;;;;11.87;77.09;100756.60;105636;1308;21992;-59
2022/12/17 21:11:01;;;;;;;4.40;3.40;;;;;;;11.99;76.13;100760.88;105596;1297;21972;-57
2022/12/17 21:13:29;;;;;;;4.60;3.20;;;;;;;12.02;75.69;100772.28;105503;1308;21995;-57
2022/12/17 21:15:56;;;;;;;4.70;3.20;;;;;;;11.94;75.47;100780.77;105518;1309;22014;-59
2022/12/17 21:18:22;;;;;;;5.80;3.40;;;;;;;11.85;74.52;100791.60;104852;1309;1006242;-58
2022/12/17 21:20:58;;;;;;;4.60;3.30;;;;;;;11.87;75.70;100793.52;105510;1309;22021;-57
2022/12/17 21:23:24;;;;;;;4.80;3.50;;;;;;;11.79;75.72;100795.71;105552;1309;21987;-59
2022/12/17 21:26:20;;;;;;;4.70;3.40;;;;;;;11.64;76.14;100805.02;105530;1307;21974;-57
2022/12/17 21:28:47;;;;;;;4.00;2.90;;;;;;;11.49;75.69;100809.71;105462;1309;21963;-59
2022/12/17 21:31:22;;;;;;;4.00;3.10;;;;;;;11.48;75.71;100813.59;105503;1309;21964;-58
2022/12/17 21:33:49;;;;;;;4.70;3.20;;;;;;;11.42;75.48;100815.05;105512;1309;21970;-59
2022/12/17 21:36:18;;;;;;;3.60;2.80;;;;;;;11.20;75.17;100818.58;105645;1301;23056;-58
2022/12/17 21:38:43;;;;;;;5.10;3.60;;;;;;;11.13;75.18;100824.60;105580;1309;21972;-59
2022/12/17 21:41:11;;;;;;;4.10;3.10;;;;;;;11.34;75.13;100829.71;105600;1309;21973;-57
2022/12/17 21:43:38;;;;;;;4.70;3.90;;;;;;;11.48;74.22;100836.80;105538;1306;21979;-59
2022/12/17 21:46:04;;;;;;;4.90;3.50;;;;;;;11.54;74.34;100846.41;105563;1309;21983;-57
2022/12/17 21:48:31;;;;;;;3.60;2.60;;;;;;;11.58;74.16;100855.67;105553;1309;21963;-57
2022/12/17 21:50:56;;;;;;;4.00;2.70;;;;;;;11.74;73.66;100862.04;105507;1309;22661;-58
2022/12/17 21:53:22;;;;;;;7.10;3.60;;;;;;;11.94;72.49;100868.02;105508;1309;23643;-58
2022/12/17 21:55:49;;;;;;;4.70;2.90;;;;;;;11.95;71.66;100876.27;105512;1309;21974;-58
2022/12/17 21:58:17;;;;;;;5.00;3.30;;;;;;;11.95;70.68;100887.16;105532;1309;22005;-58
2022/12/17 22:00:43;;;;;;;8.90;4.20;;;;;;;12.06;70.61;100891.13;105511;1309;21972;-59
2022/12/17 22:03:08;;;;;;;14.50;6.20;;;;;;;12.18;71.12;100893.65;105572;1309;21966;-59
2022/12/17 22:05:36;;;;;;;10.60;4.90;;;;;;;12.16;71.45;100895.77;105495;1309;21986;-59
2022/12/17 22:08:02;;;;;;;6.90;3.50;;;;;;;12.03;71.53;100894.14;105603;1309;21975;-59
